Time;durP1;ratioP1;P1;durP2;ratioP2;P2;SDS_P1;SDS_P2;PMS_P1;PMS_P2;Temp;Humidity;BMP_temperature;BMP_pressure;BME280_temperature;BME280_humidity;BME280_pressure;Samples;Min_cycle;Max_cycle;Signal;HPM_P1;HPM_P2
2023/11/27 00:00:42;;;;;;;1.55;1.10;;;19.40;53.20;;;;;;8363742;28;20071;-54
2023/11/27 00:04:43;;;;;;;1.38;1.08;;;19.30;53.20;;;;;;8364251;28;20049;-53
2023/11/27 00:08:44;;;;;;;1.52;0.90;;;19.40;53.30;;;;;;8363428;28;20079;-51
2023/11/27 00:12:45;;;;;;;1.42;1.05;;;19.40;53.20;;;;;;8363540;28;20120;-54
2023/11/27 00:16:48;;;;;;;1.30;0.70;;;19.40;53.20;;;;;;8363322;28;20052;-52
2023/11/27 00:20:49;;;;;;;1.92;1.00;;;19.40;53.70;;;;;;8362984;28;20612;-53
2023/11/27 00:24:52;;;;;;;0.95;0.95;;;19.40;53.20;;;;;;8362879;28;20037;-53
2023/11/27 00:28:54;;;;;;;1.35;1.00;;;19.40;53.20;;;;;;8362858;28;20041;-53
2023/11/27 00:32:55;;;;;;;1.27;0.70;;;19.40;53.20;;;;;;8362428;28;20073;-53
2023/11/27 00:36:58;;;;;;;0.80;0.80;;;19.40;53.20;;;;;;8361183;28;20040;-54
2023/11/27 00:40:58;;;;;;;1.33;1.00;;;19.40;53.20;;;;;;8362408;28;20033;-54
2023/11/27 00:44:59;;;;;;;1.30;1.10;;;19.40;53.20;;;;;;8362466;28;20482;-50
2023/11/27 00:49:12;;;;;;;1.05;0.95;;;19.40;53.20;;;;;;8362349;28;20371;-50
2023/11/27 00:53:18;;;;;;;1.13;0.98;;;19.30;53.30;;;;;;8362050;28;20084;-49
2023/11/27 00:57:19;;;;;;;0.90;0.90;;;19.40;53.30;;;;;;8362268;28;20459;-49
2023/11/27 01:01:22;;;;;;;1.58;1.35;;;19.30;53.30;;;;;;8361729;28;20134;-49
2023/11/27 01:05:24;;;;;;;1.20;1.10;;;19.30;53.30;;;;;;8361450;28;20026;-51
2023/11/27 01:09:25;;;;;;;1.00;0.98;;;19.30;53.30;;;;;;8361335;28;20030;-49
2023/11/27 01:13:29;;;;;;;0.95;0.93;;;19.30;53.30;;;;;;8361518;28;20033;-50
2023/11/27 01:17:29;;;;;;;1.30;1.00;;;19.30;53.20;;;;;;8361253;28;20039;-51
2023/11/27 01:21:31;;;;;;;1.20;0.90;;;19.30;53.20;;;;;;8359879;28;20033;-50
2023/11/27 01:25:31;;;;;;;;;;;19.30;53.20;;;;;;8360398;28;20557;-50
2023/11/27 01:29:32;;;;;;;1.20;0.83;;;19.30;53.20;;;;;;8360828;28;20301;-49
2023/11/27 01:33:33;;;;;;;1.23;0.90;;;19.30;53.20;;;;;;8360878;28;20071;-52
2023/11/27 01:37:34;;;;;;;2.17;1.10;;;19.30;53.20;;;;;;8360739;28;20436;-48
2023/11/27 01:41:35;;;;;;;1.25;0.90;;;19.30;53.20;;;;;;8360546;28;20025;-50
2023/11/27 01:45:35;;;;;;;;;;;19.30;53.20;;;;;;8360271;28;20041;-48
2023/11/27 01:49:38;;;;;;;1.20;1.07;;;19.30;53.20;;;;;;8360775;28;19905;-51
2023/11/27 01:53:39;;;;;;;1.00;0.88;;;19.30;53.20;;;;;;8360542;28;20395;-49
2023/11/27 01:57:40;;;;;;;2.00;1.10;;;19.30;53.20;;;;;;8360164;28;20064;-51
2023/11/27 02:01:41;;;;;;;1.30;1.20;;;19.30;53.20;;;;;;8359944;28;20056;-52
2023/11/27 02:05:41;;;;;;;;;;;19.30;53.30;;;;;;8360517;28;20037;-54
2023/11/27 02:09:43;;;;;;;1.40;1.30;;;19.20;53.20;;;;;;8360648;28;19920;-53
2023/11/27 02:13:45;;;;;;;0.80;0.80;;;19.20;53.30;;;;;;8359941;28;20044;-52
2023/11/27 02:17:46;;;;;;;1.20;1.00;;;19.20;53.30;;;;;;8360179;28;20029;-53
2023/11/27 02:21:47;;;;;;;;;;;19.20;53.20;;;;;;8360300;28;20044;-53
2023/11/27 02:25:47;;;;;;;2.07;1.20;;;19.20;53.20;;;;;;8359684;28;19951;-51
2023/11/27 02:29:48;;;;;;;1.60;1.00;;;19.30;53.30;;;;;;8359775;28;20176;-54
2023/11/27 02:33:49;;;;;;;1.40;1.30;;;19.30;53.20;;;;;;8359613;28;20407;-53
2023/11/27 02:37:50;;;;;;;2.13;1.30;;;19.30;53.20;;;;;;8359708;28;20033;-52
2023/11/27 02:41:50;;;;;;;1.13;1.02;;;19.30;53.20;;;;;;8359587;28;20026;-54
2023/11/27 02:45:51;;;;;;;2.35;1.05;;;19.20;53.20;;;;;;8359407;28;20501;-53
2023/11/27 02:49:52;;;;;;;1.20;1.00;;;19.20;53.10;;;;;;8359611;28;20029;-53
2023/11/27 02:53:53;;;;;;;1.38;1.17;;;19.20;53.10;;;;;;8359233;28;20097;-51
2023/11/27 02:57:54;;;;;;;1.10;1.00;;;19.20;53.10;;;;;;8363075;28;20029;-54
2023/11/27 03:01:55;;;;;;;1.25;1.10;;;19.30;53.20;;;;;;8365540;28;20080;-53
2023/11/27 03:05:56;;;;;;;;;;;19.20;53.20;;;;;;8365888;28;20068;-52
2023/11/27 03:09:57;;;;;;;1.53;1.10;;;19.20;53.20;;;;;;8365316;28;19920;-51
2023/11/27 03:13:57;;;;;;;1.27;1.02;;;19.20;53.20;;;;;;8365375;28;20134;-51
2023/11/27 03:17:58;;;;;;;1.05;0.98;;;19.20;53.20;;;;;;8365543;28;20037;-51
2023/11/27 03:21:58;;;;;;;1.35;1.02;;;19.20;53.20;;;;;;8365156;28;20390;-50
2023/11/27 03:26:02;;;;;;;1.10;1.00;;;19.20;53.20;;;;;;8364815;28;20040;-52
2023/11/27 03:30:03;;;;;;;1.20;1.10;;;19.20;53.20;;;;;;8364675;28;20039;-52
2023/11/27 03:34:04;;;;;;;;;;;19.20;53.10;;;;;;8365086;28;20039;-51
2023/11/27 03:38:05;;;;;;;1.07;1.00;;;19.20;53.10;;;;;;8364630;28;19905;-52
2023/11/27 03:42:06;;;;;;;1.20;1.10;;;19.20;53.10;;;;;;8364260;28;20033;-52
2023/11/27 03:46:07;;;;;;;1.17;1.08;;;19.30;53.10;;;;;;8364287;28;20065;-51
2023/11/27 03:50:08;;;;;;;1.83;1.10;;;19.20;53.10;;;;;;8363901;28;20041;-52
2023/11/27 03:54:11;;;;;;;;;;;19.20;53.10;;;;;;8364262;28;20713;-52
2023/11/27 03:58:12;;;;;;;1.27;1.17;;;19.20;53.10;;;;;;8364077;28;19913;-51
2023/11/27 04:02:12;;;;;;;1.20;1.10;;;19.20;53.10;;;;;;8363637;28;20048;-51
2023/11/27 04:06:22;;;;;;;1.30;1.20;;;19.20;53.10;;;;;;8363520;28;20659;-53
2023/11/27 04:10:23;;;;;;;1.20;1.10;;;19.20;53.10;;;;;;8362792;28;20029;-51
2023/11/27 04:14:23;;;;;;;1.30;1.20;;;19.20;53.10;;;;;;8363357;28;20068;-50
2023/11/27 04:18:24;;;;;;;1.10;1.00;;;19.20;53.10;;;;;;8363411;28;20061;-51
2023/11/27 04:22:25;;;;;;;1.67;1.35;;;19.20;53.10;;;;;;8363038;28;20658;-50
2023/11/27 04:26:25;;;;;;;1.35;1.20;;;19.20;53.20;;;;;;8362944;28;20029;-48
2023/11/27 04:30:26;;;;;;;1.42;1.15;;;19.20;53.20;;;;;;8362798;28;20040;-49
2023/11/27 04:34:27;;;;;;;1.40;1.30;;;19.20;53.20;;;;;;8362696;28;20063;-48
2023/11/27 04:38:28;;;;;;;1.48;1.27;;;19.20;53.10;;;;;;8362598;28;20035;-50
2023/11/27 04:42:33;;;;;;;1.88;1.20;;;19.20;53.10;;;;;;8362456;28;20087;-48
2023/11/27 04:46:33;;;;;;;1.42;1.20;;;19.20;53.10;;;;;;8362423;28;20079;-49
2023/11/27 04:50:34;;;;;;;1.35;0.98;;;19.20;53.10;;;;;;8360861;28;20119;-49
2023/11/27 04:54:35;;;;;;;1.52;1.20;;;19.20;53.10;;;;;;8361909;28;20051;-49
2023/11/27 04:58:36;;;;;;;1.40;1.30;;;19.20;53.10;;;;;;8362154;28;20021;-49
2023/11/27 05:02:36;;;;;;;1.30;1.20;;;19.20;53.10;;;;;;8361671;28;20128;-48
2023/11/27 05:06:37;;;;;;;1.10;1.00;;;19.20;53.10;;;;;;8361570;28;20399;-49
2023/11/27 05:10:39;;;;;;;1.33;1.23;;;19.20;53.10;;;;;;8361520;28;20040;-48
2023/11/27 05:14:39;;;;;;;1.58;1.45;;;19.20;53.10;;;;;;8361473;28;20662;-50
2023/11/27 05:18:43;;;;;;;1.42;1.33;;;19.20;53.00;;;;;;8361291;28;20612;-48
2023/11/27 05:22:43;;;;;;;1.20;1.10;;;19.30;53.00;;;;;;8360193;28;20021;-49
2023/11/27 05:26:44;;;;;;;1.88;1.38;;;19.30;53.00;;;;;;8360914;28;20497;-48
2023/11/27 05:30:45;;;;;;;2.17;1.20;;;19.30;52.80;;;;;;8360920;28;20087;-49
2023/11/27 05:34:46;;;;;;;1.70;1.42;;;19.40;52.70;;;;;;8360900;28;20095;-50
2023/11/27 05:38:46;;;;;;;1.05;0.95;;;19.40;52.60;;;;;;8360683;28;20077;-49
2023/11/27 05:42:48;;;;;;;2.45;1.63;;;19.40;52.60;;;;;;8360480;28;20025;-49
2023/11/27 05:46:49;;;;;;;1.50;1.40;;;19.40;52.50;;;;;;8360547;28;20029;-50
2023/11/27 05:50:49;;;;;;;1.23;1.10;;;19.50;52.50;;;;;;8360326;28;20040;-51
2023/11/27 05:54:50;;;;;;;1.77;1.25;;;19.50;52.50;;;;;;8359999;28;20033;-48
2023/11/27 05:58:51;;;;;;;1.35;1.20;;;19.50;52.60;;;;;;8360296;28;20467;-49
2023/11/27 06:02:52;;;;;;;1.40;1.30;;;19.50;52.40;;;;;;8359945;28;20048;-50
2023/11/27 06:06:53;;;;;;;1.27;1.13;;;19.50;52.40;;;;;;8359926;28;20407;-50
2023/11/27 06:10:54;;;;;;;1.60;1.30;;;19.50;52.40;;;;;;8359955;28;20376;-48
2023/11/27 06:14:54;;;;;;;1.30;1.20;;;19.50;52.40;;;;;;8359597;28;20719;-50
2023/11/27 06:18:55;;;;;;;1.30;1.20;;;19.50;52.40;;;;;;8359870;28;20033;-48
2023/11/27 06:22:57;;;;;;;1.25;1.15;;;19.50;52.40;;;;;;8359659;28;20055;-50
2023/11/27 06:26:57;;;;;;;1.85;1.50;;;19.50;52.40;;;;;;8359713;28;20025;-48
2023/11/27 06:30:58;;;;;;;1.27;1.05;;;19.50;52.30;;;;;;8360042;28;20116;-49
2023/11/27 06:34:59;;;;;;;1.50;1.23;;;19.50;52.30;;;;;;8366416;28;20045;-48
2023/11/27 06:38:59;;;;;;;1.50;1.25;;;19.50;52.30;;;;;;8366555;28;20041;-50
2023/11/27 06:43:00;;;;;;;1.50;1.40;;;19.50;52.30;;;;;;8366565;28;20086;-49
2023/11/27 06:47:01;;;;;;;1.30;1.20;;;19.50;52.30;;;;;;8366026;28;20108;-48
2023/11/27 06:51:02;;;;;;;1.65;1.48;;;19.50;52.30;;;;;;8366169;28;20029;-49
2023/11/27 06:55:03;;;;;;;1.17;1.05;;;19.50;52.40;;;;;;8365788;28;20534;-48
2023/11/27 06:59:04;;;;;;;2.65;1.20;;;19.50;52.30;;;;;;8365699;28;20094;-49
2023/11/27 07:03:05;;;;;;;1.42;1.33;;;19.50;52.30;;;;;;8365559;28;20465;-49
2023/11/27 07:07:06;;;;;;;1.40;1.23;;;19.50;52.30;;;;;;8365786;28;20040;-48
2023/11/27 07:11:08;;;;;;;1.55;1.42;;;19.50;52.30;;;;;;8364199;28;20036;-49
2023/11/27 07:15:09;;;;;;;1.10;1.00;;;19.60;52.30;;;;;;8365282;28;20107;-48
2023/11/27 07:19:12;;;;;;;1.30;1.15;;;19.50;52.30;;;;;;8365195;28;20040;-49
2023/11/27 07:23:13;;;;;;;1.45;1.30;;;19.50;52.30;;;;;;8365357;28;20068;-49
2023/11/27 07:27:15;;;;;;;1.38;1.27;;;19.50;52.30;;;;;;8364832;28;20052;-48
2023/11/27 07:31:16;;;;;;;2.00;1.30;;;19.50;52.30;;;;;;8364921;28;20127;-48
2023/11/27 07:35:17;;;;;;;1.42;1.33;;;19.50;52.30;;;;;;8364617;28;20064;-49
2023/11/27 07:39:18;;;;;;;1.20;1.10;;;19.60;52.30;;;;;;8365122;28;20131;-49
2023/11/27 07:43:18;;;;;;;2.70;1.30;;;19.50;52.30;;;;;;8364656;28;20367;-50
2023/11/27 07:47:22;;;;;;;1.30;1.10;;;19.50;52.30;;;;;;8364355;28;20118;-53
2023/11/27 07:51:22;;;;;;;1.67;1.52;;;19.50;52.30;;;;;;8364032;28;20111;-52
2023/11/27 07:55:23;;;;;;;2.30;1.50;;;19.50;52.30;;;;;;8362985;28;20033;-54
2023/11/27 07:59:25;;;;;;;1.63;1.30;;;19.50;52.30;;;;;;8363832;28;20029;-54
2023/11/27 08:03:26;;;;;;;1.30;1.05;;;19.50;52.30;;;;;;8362521;28;20052;-52
2023/11/27 08:07:27;;;;;;;1.35;1.20;;;19.50;52.30;;;;;;8363880;28;20039;-54
2023/11/27 08:11:32;;;;;;;1.70;1.25;;;19.50;52.30;;;;;;8363489;28;20037;-53
2023/11/27 08:15:32;;;;;;;1.80;1.27;;;19.50;52.30;;;;;;8363485;28;20359;-53
2023/11/27 08:19:34;;;;;;;1.75;1.45;;;19.50;52.30;;;;;;8363165;28;20029;-54
2023/11/27 08:23:34;;;;;;;2.42;1.65;;;19.50;52.30;;;;;;8363248;28;20040;-52
2023/11/27 08:27:36;;;;;;;1.52;1.38;;;19.50;52.30;;;;;;8363211;28;20090;-54
2023/11/27 08:31:37;;;;;;;1.30;1.20;;;19.50;52.30;;;;;;8362877;28;20486;-51
2023/11/27 08:35:37;;;;;;;1.70;1.52;;;19.60;52.30;;;;;;8363032;28;20387;-54
2023/11/27 08:39:38;;;;;;;1.40;1.30;;;19.50;52.30;;;;;;8361356;28;20025;-53
2023/11/27 08:43:41;;;;;;;1.75;1.35;;;19.50;52.30;;;;;;8362645;28;20540;-54
2023/11/27 08:47:51;;;;;;;1.48;1.38;;;19.60;52.30;;;;;;8362424;28;20083;-53
2023/11/27 08:51:52;;;;;;;2.17;1.48;;;19.50;52.30;;;;;;8362322;28;20486;-54
2023/11/27 08:55:55;;;;;;;1.67;1.30;;;19.50;52.30;;;;;;8361683;28;20391;-50
2023/11/27 08:59:55;;;;;;;1.90;1.50;;;19.50;52.30;;;;;;8362199;28;20478;-50
2023/11/27 09:03:56;;;;;;;1.90;1.65;;;19.50;52.30;;;;;;8360581;28;20409;-49
2023/11/27 09:08:00;;;;;;;1.70;1.38;;;19.50;52.30;;;;;;8361634;28;20033;-51
2023/11/27 09:12:00;;;;;;;1.98;1.77;;;19.50;52.30;;;;;;8361793;28;20033;-49
2023/11/27 09:16:01;;;;;;;2.67;1.73;;;19.50;52.40;;;;;;8361483;28;20479;-51
2023/11/27 09:20:02;;;;;;;1.52;1.42;;;19.50;52.30;;;;;;8361245;28;20025;-49
2023/11/27 09:24:03;;;;;;;1.45;1.30;;;19.50;52.30;;;;;;8361456;28;20033;-50
2023/11/27 09:28:04;;;;;;;1.55;1.17;;;19.50;52.30;;;;;;8361156;28;20041;-52
2023/11/27 09:32:05;;;;;;;1.33;1.20;;;19.50;52.30;;;;;;8360862;28;20044;-48
2023/11/27 09:36:13;;;;;;;2.00;1.55;;;19.60;52.30;;;;;;8360772;28;20029;-50
2023/11/27 09:40:15;;;;;;;1.45;1.17;;;19.50;52.30;;;;;;8360417;28;20026;-52
2023/11/27 09:44:18;;;;;;;1.67;1.38;;;19.60;52.30;;;;;;8360520;28;20037;-50
2023/11/27 09:48:19;;;;;;;1.83;1.70;;;19.50;52.30;;;;;;8360468;28;20036;-50
2023/11/27 09:52:26;;;;;;;2.03;1.65;;;19.50;52.30;;;;;;8360411;28;20033;-49
2023/11/27 09:56:28;;;;;;;1.60;1.40;;;19.60;52.30;;;;;;8360310;28;20090;-50
2023/11/27 10:00:30;;;;;;;1.77;1.33;;;19.50;52.30;;;;;;8360283;28;20040;-49
2023/11/27 10:04:31;;;;;;;2.15;1.33;;;19.50;52.30;;;;;;8359890;28;20053;-49
2023/11/27 10:08:33;;;;;;;1.70;1.30;;;19.50;52.30;;;;;;8359700;28;20032;-49
2023/11/27 10:12:37;;;;;;;1.45;1.30;;;19.50;52.30;;;;;;8359892;28;20036;-49
2023/11/27 10:16:39;;;;;;;1.60;1.13;;;19.60;52.30;;;;;;8359692;28;20021;-49
2023/11/27 10:20:41;;;;;;;1.65;1.40;;;19.50;52.30;;;;;;8359434;28;20407;-51
2023/11/27 10:24:44;;;;;;;1.55;1.45;;;19.60;52.40;;;;;;8359597;28;20090;-50
2023/11/27 10:28:45;;;;;;;1.58;1.40;;;19.50;52.30;;;;;;8359627;28;20033;-49
2023/11/27 10:32:47;;;;;;;1.30;1.20;;;19.60;52.40;;;;;;8359590;28;20037;-50
2023/11/27 10:37:00;;;;;;;1.50;1.33;;;19.50;52.40;;;;;;8359222;28;20036;-51
2023/11/27 10:41:05;;;;;;;1.60;1.50;;;19.60;52.40;;;;;;8359356;28;20037;-49
2023/11/27 10:45:08;;;;;;;2.45;1.48;;;19.50;52.30;;;;;;8359533;28;20043;-50
2023/11/27 10:49:14;;;;;;;2.15;1.38;;;19.60;52.40;;;;;;8359518;28;20037;-50
2023/11/27 10:53:21;;;;;;;1.40;1.30;;;19.50;52.30;;;;;;8359134;28;20496;-51
2023/11/27 10:57:25;;;;;;;1.55;1.45;;;19.50;52.30;;;;;;8359063;28;20051;-48
2023/11/27 11:01:31;;;;;;;1.65;1.35;;;19.60;52.40;;;;;;8358982;28;20466;-49
2023/11/27 11:05:41;;;;;;;1.35;1.25;;;19.60;52.40;;;;;;8359042;28;20551;-50
2023/11/27 11:09:44;;;;;;;1.50;1.33;;;19.50;52.40;;;;;;8358780;28;20025;-51
2023/11/27 11:13:46;;;;;;;2.70;1.58;;;19.60;52.60;;;;;;8359111;28;20064;-50
2023/11/27 11:17:51;;;;;;;1.40;1.30;;;19.60;52.40;;;;;;8360448;28;20107;-47
2023/11/27 11:22:22;;;;;;;1.95;1.20;;;19.60;52.40;;;;;;8364929;28;20104;-48
2023/11/27 11:26:33;;;;;;;3.00;1.70;;;19.50;52.30;;;;;;8364963;28;20044;-49
2023/11/27 11:30:34;;;;;;;1.85;1.27;;;19.60;52.40;;;;;;8363501;28;20036;-51
2023/11/27 11:34:41;;;;;;;1.98;1.30;;;19.60;52.40;;;;;;8364784;28;20037;-47
2023/11/27 11:38:45;;;;;;;1.58;1.08;;;19.50;52.40;;;;;;8364591;28;20360;-51
2023/11/27 11:42:48;;;;;;;1.58;1.25;;;19.60;52.40;;;;;;8364992;28;20025;-47
2023/11/27 11:46:53;;;;;;;2.58;1.40;;;19.50;52.40;;;;;;8364884;28;20056;-50
2023/11/27 11:50:54;;;;;;;1.95;1.52;;;19.60;52.50;;;;;;8364215;28;20032;-48
2023/11/27 11:54:59;;;;;;;;;;;19.50;52.40;;;;;;8364190;28;20479;-49
2023/11/27 11:59:09;;;;;;;1.52;1.42;;;19.50;52.40;;;;;;8363838;28;20374;-49
2023/11/27 12:03:15;;;;;;;1.57;1.27;;;19.50;52.40;;;;;;8363861;28;20057;-50
2023/11/27 12:07:16;;;;;;;3.72;1.48;;;19.60;52.50;;;;;;8363543;28;20025;-49
2023/11/27 12:11:16;;;;;;;1.30;1.20;;;19.50;52.40;;;;;;8363610;28;20029;-49
2023/11/27 12:15:17;;;;;;;1.30;1.13;;;19.50;52.50;;;;;;8363291;28;20068;-50
2023/11/27 12:19:19;;;;;;;1.17;1.08;;;19.50;52.50;;;;;;8363318;28;20128;-48
2023/11/27 12:23:20;;;;;;;2.42;1.90;;;19.60;52.50;;;;;;8363951;28;20087;-49
2023/11/27 12:27:22;;;;;;;1.48;1.30;;;19.50;52.50;;;;;;8363083;28;20063;-51
2023/11/27 12:31:27;;;;;;;1.80;1.30;;;19.50;52.50;;;;;;8362252;28;20061;-49
2023/11/27 12:35:28;;;;;;;1.80;1.60;;;19.50;52.50;;;;;;8362853;28;20032;-51
2023/11/27 12:39:30;;;;;;;1.65;1.55;;;19.50;52.50;;;;;;8362781;28;20039;-50
2023/11/27 12:43:39;;;;;;;2.00;1.38;;;19.60;52.60;;;;;;8361964;28;20053;-49
2023/11/27 12:47:45;;;;;;;1.48;1.27;;;19.60;52.60;;;;;;8362393;28;20029;-49
2023/11/27 12:51:47;;;;;;;1.48;1.38;;;19.50;53.10;;;;;;8362404;28;20037;-50
2023/11/27 12:55:49;;;;;;;1.55;1.27;;;19.50;52.60;;;;;;8362045;28;20064;-50
2023/11/27 12:59:50;;;;;;;1.67;1.35;;;19.50;52.50;;;;;;8361973;28;20363;-51
2023/11/27 13:03:51;;;;;;;1.90;1.35;;;19.50;52.60;;;;;;8360727;28;20053;-50
2023/11/27 13:07:56;;;;;;;2.00;1.60;;;19.50;52.50;;;;;;8361961;28;20040;-49
2023/11/27 13:11:59;;;;;;;1.48;1.38;;;19.50;52.60;;;;;;8361861;28;20090;-49
2023/11/27 13:16:04;;;;;;;1.27;1.15;;;19.50;52.60;;;;;;8361542;28;20091;-50
2023/11/27 13:20:10;;;;;;;1.70;1.48;;;19.50;52.60;;;;;;8361436;28;20044;-51
2023/11/27 13:24:13;;;;;;;1.58;1.30;;;19.50;52.50;;;;;;8361481;28;20040;-50
2023/11/27 13:28:17;;;;;;;1.92;1.30;;;19.50;52.50;;;;;;8361453;28;20112;-49
2023/11/27 13:32:18;;;;;;;1.77;1.30;;;19.50;52.50;;;;;;8361159;28;20040;-51
2023/11/27 13:36:19;;;;;;;2.95;1.55;;;19.50;52.60;;;;;;8361163;28;20040;-52
2023/11/27 13:40:22;;;;;;;1.60;1.17;;;19.50;52.60;;;;;;8360733;28;20060;-53
2023/11/27 13:44:23;;;;;;;1.98;1.60;;;19.50;52.60;;;;;;8360365;28;20029;-53
2023/11/27 13:48:25;;;;;;;1.60;1.10;;;19.50;52.60;;;;;;8360901;28;20036;-54
2023/11/27 13:52:30;;;;;;;1.40;1.27;;;19.50;52.60;;;;;;8360548;28;20632;-52
2023/11/27 13:56:31;;;;;;;2.03;1.20;;;19.50;52.60;;;;;;8360607;28;20028;-53
2023/11/27 14:00:34;;;;;;;1.33;1.10;;;19.50;52.60;;;;;;8360464;28;20067;-54
2023/11/27 14:04:35;;;;;;;1.73;1.58;;;19.50;52.60;;;;;;8360072;28;20136;-54
2023/11/27 14:08:52;;;;;;;1.40;1.25;;;19.50;52.60;;;;;;8360368;28;20062;-54
2023/11/27 14:12:59;;;;;;;1.70;1.40;;;19.50;52.60;;;;;;8360080;28;20083;-53
2023/11/27 14:17:27;;;;;;;1.80;1.30;;;19.50;52.60;;;;;;8359965;28;20117;-53
2023/11/27 14:26:11;;;;;;;1.35;1.25;;;19.50;52.70;;;;;;8359775;28;20108;-52
2023/11/27 14:30:13;;;;;;;1.67;1.20;;;19.50;52.70;;;;;;8326781;28;20065;-53
2023/11/27 14:34:13;;;;;;;2.13;1.30;;;19.50;52.70;;;;;;8326651;28;20064;-53
2023/11/27 14:38:15;;;;;;;1.40;1.25;;;19.50;52.70;;;;;;8326872;28;20049;-53
2023/11/27 14:42:18;;;;;;;;;;;19.50;52.70;;;;;;8327460;28;20404;-53
2023/11/27 14:46:18;;;;;;;1.63;1.50;;;19.50;52.70;;;;;;8326944;28;19912;-49
2023/11/27 14:50:27;;;;;;;1.73;1.50;;;19.50;52.70;;;;;;8326493;28;20481;-49
2023/11/27 14:54:28;;;;;;;1.70;1.35;;;19.50;52.70;;;;;;8330751;28;20064;-49
2023/11/27 14:58:31;;;;;;;1.65;1.35;;;19.50;52.70;;;;;;8356210;28;20060;-47
2023/11/27 15:02:32;;;;;;;1.80;1.40;;;19.50;52.70;;;;;;8365536;28;20573;-49
2023/11/27 15:06:34;;;;;;;2.47;1.73;;;19.50;52.70;;;;;;8365537;28;20439;-49
2023/11/27 15:10:35;;;;;;;1.95;1.80;;;19.50;52.60;;;;;;8365322;28;20406;-51
2023/11/27 15:14:36;;;;;;;1.70;1.15;;;19.50;52.60;;;;;;8365505;28;20056;-50
2023/11/27 15:18:38;;;;;;;1.58;1.30;;;19.50;52.60;;;;;;8365498;28;20661;-48
2023/11/27 15:22:39;;;;;;;2.03;1.15;;;19.50;52.60;;;;;;8365421;28;20059;-48
2023/11/27 15:26:39;;;;;;;;;;;19.50;52.60;;;;;;8365525;28;20033;-49
2023/11/27 15:30:40;;;;;;;1.87;1.43;;;19.50;52.50;;;;;;8364665;28;19959;-48
2023/11/27 15:34:41;;;;;;;1.95;1.52;;;19.50;52.50;;;;;;8364584;28;20037;-48
2023/11/27 15:38:42;;;;;;;1.48;1.10;;;19.50;52.60;;;;;;8364819;28;20025;-48
2023/11/27 15:42:44;;;;;;;1.17;1.08;;;19.50;52.60;;;;;;8364317;28;20429;-48
2023/11/27 15:46:45;;;;;;;1.90;1.25;;;19.50;52.60;;;;;;8364338;28;20426;-48
2023/11/27 15:50:46;;;;;;;1.42;1.20;;;19.50;52.50;;;;;;8364086;28;20041;-49
2023/11/27 15:54:48;;;;;;;1.63;1.40;;;19.50;52.60;;;;;;8363967;28;20131;-49
2023/11/27 15:58:48;;;;;;;2.28;1.52;;;19.50;52.50;;;;;;8364363;28;20467;-53
2023/11/27 16:02:56;;;;;;;2.10;1.38;;;19.50;53.10;;;;;;8363489;28;20480;-54
2023/11/27 16:06:57;;;;;;;1.95;1.38;;;19.50;52.50;;;;;;8362549;28;20029;-52
2023/11/27 16:10:59;;;;;;;2.60;1.50;;;19.50;52.60;;;;;;8364030;28;20036;-54
2023/11/27 16:15:00;;;;;;;2.08;1.27;;;19.50;52.60;;;;;;8362049;28;20040;-53
2023/11/27 16:19:01;;;;;;;1.77;1.40;;;19.50;52.60;;;;;;8363267;28;20025;-53
2023/11/27 16:23:01;;;;;;;;;;;19.50;52.60;;;;;;8364027;28;20033;-52
2023/11/27 16:27:02;;;;;;;2.30;1.50;;;19.50;52.60;;;;;;8363011;28;20400;-52
2023/11/27 16:31:04;;;;;;;1.48;1.38;;;19.50;52.70;;;;;;8362741;28;20029;-54
2023/11/27 16:35:23;;;;;;;1.45;1.25;;;19.50;52.70;;;;;;8362842;28;20052;-54
2023/11/27 16:39:25;;;;;;;1.58;1.33;;;19.40;52.70;;;;;;8362647;28;20029;-54
2023/11/27 16:43:26;;;;;;;1.25;1.15;;;19.40;52.70;;;;;;8362852;28;20025;-53
2023/11/27 16:47:27;;;;;;;2.38;1.23;;;19.40;52.80;;;;;;8362359;28;20029;-53
2023/11/27 16:51:28;;;;;;;1.70;1.48;;;19.40;52.80;;;;;;8362298;28;20029;-54
2023/11/27 16:55:30;;;;;;;1.40;1.15;;;19.40;52.80;;;;;;8362244;28;20536;-53
2023/11/27 16:59:31;;;;;;;1.88;1.25;;;19.40;52.70;;;;;;8361856;28;20040;-53
2023/11/27 17:03:37;;;;;;;1.30;1.20;;;19.50;52.70;;;;;;8361847;28;20077;-53
2023/11/27 17:07:38;;;;;;;1.50;1.20;;;19.50;52.60;;;;;;8362077;28;20108;-52
2023/11/27 17:11:39;;;;;;;1.67;1.30;;;19.50;52.60;;;;;;8361974;28;20112;-51
2023/11/27 17:15:44;;;;;;;1.50;1.40;;;19.50;52.60;;;;;;8361602;28;20498;-52
2023/11/27 17:19:45;;;;;;;2.22;1.48;;;19.50;52.50;;;;;;8361538;28;20032;-51
2023/11/27 17:23:45;;;;;;;1.30;1.10;;;19.50;52.50;;;;;;8361367;28;20037;-52
2023/11/27 17:27:47;;;;;;;1.50;1.10;;;19.50;52.50;;;;;;8361075;28;20060;-51
2023/11/27 17:31:49;;;;;;;1.25;1.15;;;19.50;52.40;;;;;;8361091;28;20389;-51
2023/11/27 17:35:49;;;;;;;2.25;1.15;;;19.50;52.50;;;;;;8360722;28;20114;-50
2023/11/27 17:39:51;;;;;;;2.05;1.30;;;19.60;52.50;;;;;;8360714;28;20044;-52
2023/11/27 17:43:52;;;;;;;1.13;1.02;;;19.50;52.40;;;;;;8360670;28;20033;-52
2023/11/27 17:47:53;;;;;;;1.55;1.20;;;19.50;52.40;;;;;;8360641;28;20054;-52
2023/11/27 17:51:55;;;;;;;2.25;1.35;;;19.50;52.40;;;;;;8360304;28;20044;-52
2023/11/27 17:56:02;;;;;;;2.15;1.20;;;19.50;52.40;;;;;;8360066;28;20076;-52
2023/11/27 18:00:07;;;;;;;1.33;1.20;;;19.50;52.40;;;;;;8360391;28;20040;-51
2023/11/27 18:04:08;;;;;;;1.58;1.30;;;19.60;52.50;;;;;;8359935;28;20092;-51
2023/11/27 18:08:11;;;;;;;1.30;1.20;;;19.50;52.40;;;;;;8358822;28;20064;-51
2023/11/27 18:12:13;;;;;;;1.67;1.25;;;19.50;52.50;;;;;;8360090;28;20043;-52
2023/11/27 18:16:14;;;;;;;1.85;1.20;;;19.40;52.60;;;;;;8360274;28;20029;-49
2023/11/27 18:20:16;;;;;;;;;;;19.40;52.60;;;;;;8360676;28;20063;-48
2023/11/27 18:24:17;;;;;;;1.77;1.20;;;19.40;52.70;;;;;;8359867;28;19909;-50
2023/11/27 18:28:17;;;;;;;1.48;1.20;;;19.40;52.70;;;;;;8359406;28;20041;-49
2023/11/27 18:32:19;;;;;;;1.33;1.23;;;19.40;52.70;;;;;;8360303;28;20033;-49
2023/11/27 18:36:20;;;;;;;1.65;1.13;;;19.40;52.70;;;;;;8359307;28;20025;-50
2023/11/27 18:40:21;;;;;;;1.30;1.20;;;19.40;52.60;;;;;;8359662;28;20025;-50
2023/11/27 18:44:23;;;;;;;;;;;19.50;52.60;;;;;;8360018;28;20104;-49
2023/11/27 18:48:23;;;;;;;1.55;1.27;;;19.50;52.50;;;;;;8359729;28;19905;-50
2023/11/27 18:52:27;;;;;;;1.52;1.13;;;19.50;52.40;;;;;;8359442;28;20033;-49
2023/11/27 18:56:28;;;;;;;1.10;1.00;;;19.50;52.40;;;;;;8359062;28;20032;-50
2023/11/27 19:00:28;;;;;;;1.23;1.10;;;19.50;52.40;;;;;;8359051;28;20040;-51
2023/11/27 19:04:29;;;;;;;1.27;1.08;;;19.50;52.30;;;;;;8359293;28;20457;-49
2023/11/27 19:08:30;;;;;;;1.08;1.00;;;19.50;52.30;;;;;;8359269;28;20044;-49
2023/11/27 19:12:30;;;;;;;1.70;1.35;;;19.50;52.30;;;;;;8359038;28;20090;-50
2023/11/27 19:16:34;;;;;;;1.52;1.05;;;19.50;52.30;;;;;;8359009;28;20040;-51
2023/11/27 19:20:38;;;;;;;1.00;0.90;;;19.50;52.30;;;;;;8359004;28;20071;-50
2023/11/27 19:24:47;;;;;;;1.50;1.40;;;19.50;52.30;;;;;;8358935;28;20029;-50
2023/11/27 19:28:47;;;;;;;1.00;0.90;;;19.50;52.30;;;;;;8359014;28;20418;-49
2023/11/27 19:32:51;;;;;;;3.22;1.30;;;19.50;52.40;;;;;;8358703;28;20124;-50
2023/11/27 19:36:53;;;;;;;1.73;1.15;;;19.50;52.40;;;;;;8358563;28;20033;-49
2023/11/27 19:41:15;;;;;;;1.08;0.90;;;19.50;52.50;;;;;;8361890;28;20087;-50
2023/11/27 19:45:16;;;;;;;1.83;1.73;;;19.40;52.50;;;;;;8364718;28;20091;-49
2023/11/27 19:49:17;;;;;;;1.38;1.17;;;19.50;52.60;;;;;;8364190;28;20394;-49
2023/11/27 19:53:26;;;;;;;1.52;1.38;;;19.40;52.60;;;;;;8364139;28;20029;-49
2023/11/27 19:57:30;;;;;;;1.60;1.20;;;19.40;52.60;;;;;;8363958;28;20040;-49
2023/11/27 20:01:31;;;;;;;1.15;1.02;;;19.40;52.60;;;;;;8363959;28;20045;-49
2023/11/27 20:05:39;;;;;;;1.30;1.05;;;19.50;52.70;;;;;;8363721;28;20045;-50
2023/11/27 20:09:46;;;;;;;1.23;1.13;;;19.40;52.60;;;;;;8362267;28;20037;-50
2023/11/27 20:13:47;;;;;;;2.17;1.80;;;19.40;52.60;;;;;;8363639;28;20055;-49
2023/11/27 20:17:54;;;;;;;1.58;1.00;;;19.40;52.70;;;;;;8363785;28;20112;-50
2023/11/27 20:21:55;;;;;;;1.17;1.00;;;19.40;52.60;;;;;;8363293;28;20085;-50
2023/11/27 20:25:55;;;;;;;1.27;1.17;;;19.40;52.70;;;;;;8363287;28;20037;-49
2023/11/27 20:30:08;;;;;;;0.93;0.93;;;19.40;52.70;;;;;;8362831;28;20060;-49
2023/11/27 20:34:15;;;;;;;1.00;0.88;;;19.40;52.70;;;;;;8362084;28;20064;-49
2023/11/27 20:38:22;;;;;;;1.33;1.23;;;19.40;52.70;;;;;;8362817;28;20056;-48
2023/11/27 20:42:33;;;;;;;2.35;1.30;;;19.40;52.80;;;;;;8362392;28;20474;-48
2023/11/27 20:46:34;;;;;;;1.08;1.08;;;19.30;52.80;;;;;;8362439;28;20037;-48
2023/11/27 20:50:35;;;;;;;1.35;1.17;;;19.30;52.80;;;;;;8361739;28;20655;-48
2023/11/27 20:54:45;;;;;;;1.13;1.02;;;19.30;52.80;;;;;;8362475;28;20191;-48
2023/11/27 20:58:49;;;;;;;1.10;1.00;;;19.30;52.80;;;;;;8362912;28;20025;-48
2023/11/27 21:02:53;;;;;;;2.88;1.17;;;19.30;52.90;;;;;;8360494;28;20127;-50
2023/11/27 21:07:12;;;;;;;1.17;1.08;;;19.30;52.80;;;;;;8360628;28;20037;-48
2023/11/27 21:11:25;;;;;;;1.25;1.02;;;19.30;52.90;;;;;;8361671;28;20121;-49